createdAt,value
2023-03-02T00:00:20.998Z,40.18
2023-03-02T00:02:22.910Z,40.00
2023-03-02T00:04:31.278Z,40.11
2023-03-02T00:06:35.550Z,40.29
2023-03-02T00:08:38.461Z,40.62
2023-03-02T00:10:40.107Z,40.13
2023-03-02T00:12:44.858Z,40.24
2023-03-02T00:14:46.740Z,40.31
2023-03-02T00:16:48.517Z,40.36
2023-03-02T00:18:50.376Z,40.07
2023-03-02T00:20:51.939Z,40.55
2023-03-02T00:22:53.446Z,40.92
2023-03-02T00:24:55.122Z,40.25
2023-03-02T00:26:57.139Z,40.19
2023-03-02T00:28:58.741Z,40.12
2023-03-02T00:31:03.747Z,40.62
2023-03-02T00:33:05.309Z,40.87
2023-03-02T00:35:07.883Z,40.63
2023-03-02T00:37:09.335Z,40.97
2023-03-02T00:39:11.019Z,40.56
2023-03-02T00:41:14.774Z,40.75
2023-03-02T00:43:19.163Z,40.96
2023-03-02T00:45:20.649Z,40.80
2023-03-02T00:47:24.472Z,41.16
2023-03-02T00:49:26.743Z,40.73
2023-03-02T00:51:28.311Z,40.68
2023-03-02T00:53:29.918Z,40.51
2023-03-02T00:55:31.446Z,40.86
2023-03-02T00:57:33.021Z,40.53
2023-03-02T00:59:37.603Z,41.34
2023-03-02T01:01:57.775Z,41.22
2023-03-02T01:04:00.885Z,40.72
2023-03-02T01:06:11.753Z,40.61
2023-03-02T01:08:13.478Z,40.99
2023-03-02T01:10:15.355Z,41.13
2023-03-02T01:12:17.029Z,40.72
2023-03-02T01:14:18.735Z,40.73
2023-03-02T01:16:20.394Z,40.65
2023-03-02T01:18:22.130Z,40.52
2023-03-02T01:20:23.774Z,40.92
2023-03-02T01:22:25.797Z,40.73
2023-03-02T01:24:28.044Z,41.22
2023-03-02T01:26:29.868Z,41.28
2023-03-02T01:28:31.611Z,40.62
2023-03-02T01:30:33.248Z,41.02
2023-03-02T01:32:35.035Z,40.98
2023-03-02T01:34:36.508Z,41.14
2023-03-02T01:36:38.273Z,41.38
2023-03-02T01:38:39.966Z,40.78
2023-03-02T01:40:41.785Z,41.12
2023-03-02T01:42:52.242Z,41.91
2023-03-02T01:44:57.069Z,41.41
2023-03-02T01:46:59.098Z,41.40
2023-03-02T01:49:04.778Z,42.03
2023-03-02T01:51:27.560Z,41.94
2023-03-02T01:53:34.270Z,41.32
2023-03-02T01:55:39.310Z,41.13
2023-03-02T01:57:49.297Z,41.65
2023-03-02T01:59:56.228Z,41.02
2023-03-02T02:02:01.709Z,41.29
2023-03-02T02:04:04.452Z,41.29
2023-03-02T02:06:21.843Z,41.84
2023-03-02T02:08:24.068Z,41.99
2023-03-02T02:10:26.115Z,42.05
2023-03-02T02:12:28.020Z,41.88
2023-03-02T02:14:29.667Z,41.66
2023-03-02T02:16:33.597Z,41.59
2023-03-02T02:18:39.097Z,41.35
2023-03-02T02:20:45.489Z,41.80
2023-03-02T02:22:57.035Z,41.51
2023-03-02T02:25:03.390Z,41.58
2023-03-02T02:27:05.118Z,41.93
2023-03-02T02:29:14.475Z,41.97
2023-03-02T02:31:24.859Z,42.18
2023-03-02T02:33:27.427Z,41.75
2023-03-02T02:35:31.462Z,42.28
2023-03-02T02:37:43.877Z,42.31
2023-03-02T02:39:48.922Z,42.36
2023-03-02T02:41:54.660Z,42.46
2023-03-02T02:43:56.656Z,42.13
2023-03-02T02:46:00.004Z,42.00
2023-03-02T02:48:01.825Z,42.12
2023-03-02T02:50:04.071Z,42.03
2023-03-02T02:52:07.020Z,42.66
2023-03-02T02:54:14.658Z,42.45
2023-03-02T02:56:18.493Z,42.18
2023-03-02T02:58:48.510Z,41.99
2023-03-02T03:00:50.430Z,42.16
2023-03-02T03:03:00.753Z,42.09
2023-03-02T03:05:05.338Z,42.17
2023-03-02T03:07:12.957Z,42.50
2023-03-02T03:09:14.710Z,42.72
2023-03-02T03:11:31.182Z,42.06
2023-03-02T03:13:33.380Z,42.83
2023-03-02T03:15:35.037Z,42.22
2023-03-02T03:17:36.579Z,42.77
2023-03-02T03:19:43.519Z,42.50
2023-03-02T03:21:45.878Z,42.65
2023-03-02T03:23:49.013Z,42.70
2023-03-02T03:25:51.213Z,43.06
2023-03-02T03:27:52.806Z,42.87
2023-03-02T03:29:55.453Z,42.51
2023-03-02T03:31:58.259Z,42.73
2023-03-02T03:34:01.650Z,42.75
2023-03-02T03:36:08.117Z,43.04
2023-03-02T03:38:10.596Z,42.83
2023-03-02T03:40:12.402Z,42.67
2023-03-02T03:42:18.546Z,42.78
2023-03-02T03:44:22.214Z,42.86
2023-03-02T03:46:25.054Z,42.80
2023-03-02T03:48:29.745Z,42.27
2023-03-02T03:50:31.586Z,43.28
2023-03-02T03:52:36.176Z,43.13
2023-03-02T03:54:44.478Z,43.04
2023-03-02T03:56:48.623Z,42.89
2023-03-02T03:58:53.900Z,42.90
2023-03-02T04:00:55.826Z,43.08
2023-03-02T04:02:57.362Z,42.82
2023-03-02T04:05:06.406Z,43.04
2023-03-02T04:07:08.669Z,42.72
2023-03-02T04:09:12.313Z,42.98
2023-03-02T04:11:14.722Z,42.85
2023-03-02T04:13:16.401Z,43.06
2023-03-02T04:15:18.244Z,42.98
2023-03-02T04:17:22.109Z,43.03
2023-03-02T04:19:24.810Z,42.89
2023-03-02T04:21:30.884Z,43.36
2023-03-02T04:23:32.282Z,42.91
2023-03-02T04:25:35.901Z,42.84
2023-03-02T04:27:50.174Z,43.21
2023-03-02T04:29:53.057Z,43.29
2023-03-02T04:31:55.678Z,42.94
2023-03-02T04:33:59.144Z,42.71
2023-03-02T04:36:00.998Z,43.09
2023-03-02T04:38:03.298Z,43.04
2023-03-02T04:40:06.545Z,43.01
2023-03-02T04:42:08.065Z,42.73
2023-03-02T04:44:09.605Z,43.17
2023-03-02T04:46:19.635Z,43.57
2023-03-02T04:48:22.056Z,42.96
2023-03-02T04:50:25.005Z,43.45
2023-03-02T04:52:26.698Z,43.34
2023-03-02T04:54:28.481Z,43.02
2023-03-02T04:56:33.453Z,43.61
2023-03-02T04:58:35.177Z,44.14
2023-03-02T05:00:36.948Z,43.67
2023-03-02T05:02:40.758Z,43.97
2023-03-02T05:04:42.899Z,43.17
2023-03-02T05:06:45.093Z,43.51
2023-03-02T05:08:46.658Z,43.39
2023-03-02T05:10:48.497Z,43.54
2023-03-02T05:13:02.254Z,43.90
2023-03-02T05:15:04.170Z,43.72
2023-03-02T05:17:05.752Z,43.46
2023-03-02T05:19:09.939Z,43.38
2023-03-02T05:21:12.407Z,43.60
2023-03-02T05:23:25.317Z,43.50
2023-03-02T05:25:29.524Z,43.77
2023-03-02T05:27:31.329Z,43.42
2023-03-02T05:29:32.957Z,43.36
2023-03-02T05:31:38.904Z,43.56
2023-03-02T05:33:40.460Z,44.06
2023-03-02T05:35:42.593Z,43.91
2023-03-02T05:37:45.076Z,43.48
2023-03-02T05:39:46.830Z,43.33
2023-03-02T05:41:48.682Z,43.52
2023-03-02T05:43:51.178Z,43.49
2023-03-02T05:45:52.911Z,43.51
2023-03-02T05:47:54.806Z,43.49
2023-03-02T05:49:56.504Z,43.51
2023-03-02T05:51:58.291Z,42.86
2023-03-02T05:54:00.241Z,43.25
2023-03-02T05:56:02.093Z,43.48
2023-03-02T05:58:09.260Z,43.80
2023-03-02T06:00:12.935Z,43.60
2023-03-02T06:02:14.719Z,43.68
2023-03-02T06:04:16.902Z,43.44
2023-03-02T06:06:19.901Z,43.34
2023-03-02T06:08:23.353Z,43.31
2023-03-02T06:10:25.126Z,43.65
2023-03-02T06:12:27.035Z,43.17
2023-03-02T06:14:28.608Z,43.14
2023-03-02T06:16:31.856Z,43.40
2023-03-02T06:18:34.488Z,43.55
2023-03-02T06:20:39.545Z,43.91
2023-03-02T06:22:45.148Z,43.68
2023-03-02T06:24:46.848Z,44.45
2023-03-02T06:26:48.451Z,44.00
2023-03-02T06:28:53.992Z,44.20
2023-03-02T06:30:55.874Z,44.55
2023-03-02T06:32:57.548Z,44.40
2023-03-02T06:34:59.394Z,44.09
2023-03-02T06:37:00.970Z,44.48
2023-03-02T06:39:02.591Z,44.16
2023-03-02T06:41:04.438Z,44.43
2023-03-02T06:43:06.148Z,44.70
2023-03-02T06:45:08.968Z,45.43
2023-03-02T06:47:10.452Z,44.65
2023-03-02T06:49:14.120Z,44.94
2023-03-02T06:51:16.415Z,44.63
2023-03-02T06:53:22.984Z,44.97
2023-03-02T06:55:24.789Z,44.75
2023-03-02T06:57:33.569Z,45.17
2023-03-02T06:59:37.518Z,45.45
2023-03-02T07:01:39.314Z,44.38
2023-03-02T07:03:41.030Z,44.71
2023-03-02T07:05:44.566Z,45.63
2023-03-02T07:07:50.772Z,45.26
2023-03-02T07:09:52.640Z,46.00
2023-03-02T07:11:57.803Z,45.31
2023-03-02T07:14:03.138Z,44.93
2023-03-02T07:16:09.901Z,45.41
2023-03-02T07:18:11.751Z,45.04
2023-03-02T07:20:16.439Z,45.96
2023-03-02T07:22:18.027Z,45.71
2023-03-02T07:24:20.534Z,45.57
2023-03-02T07:26:22.528Z,45.97
2023-03-02T07:28:25.418Z,46.29
2023-03-02T07:30:26.886Z,46.20
2023-03-02T07:32:28.582Z,46.49
2023-03-02T07:34:33.594Z,46.58
2023-03-02T07:36:35.595Z,46.23
2023-03-02T07:38:40.542Z,46.50
2023-03-02T07:40:43.333Z,46.20
2023-03-02T07:42:44.923Z,46.10
2023-03-02T07:44:49.291Z,46.33
2023-03-02T07:46:50.963Z,45.84
2023-03-02T07:48:54.162Z,46.29
2023-03-02T07:51:03.255Z,46.62
2023-03-02T07:53:04.728Z,46.23
2023-03-02T07:55:06.683Z,45.77
2023-03-02T07:57:08.495Z,45.49
2023-03-02T07:59:14.959Z,45.64
2023-03-02T08:01:16.832Z,45.14
2023-03-02T08:03:18.568Z,45.22
2023-03-02T08:05:23.112Z,44.52
2023-03-02T08:07:24.900Z,44.41
2023-03-02T08:09:26.573Z,44.40
2023-03-02T08:11:28.173Z,44.24
2023-03-02T08:13:30.069Z,44.01
2023-03-02T08:15:31.740Z,43.82
2023-03-02T08:17:33.350Z,43.74
2023-03-02T08:19:35.219Z,43.11
2023-03-02T08:21:36.980Z,43.49
2023-03-02T08:23:38.697Z,43.60
2023-03-02T08:25:42.926Z,43.33
2023-03-02T08:27:45.955Z,43.16
2023-03-02T08:29:47.573Z,43.11
2023-03-02T08:31:49.159Z,43.02
2023-03-02T08:33:51.417Z,43.10
2023-03-02T08:36:11.716Z,42.92
2023-03-02T08:38:13.230Z,43.42
2023-03-02T08:40:15.922Z,43.31
2023-03-02T08:42:20.108Z,43.49
2023-03-02T08:44:22.345Z,43.49
2023-03-02T08:46:24.097Z,43.39
2023-03-02T08:48:27.239Z,43.08
2023-03-02T08:50:29.143Z,43.23
2023-03-02T08:52:34.152Z,43.43
2023-03-02T08:54:36.853Z,43.26
2023-03-02T08:56:40.129Z,43.24
2023-03-02T08:58:41.767Z,43.51
2023-03-02T09:00:45.143Z,43.21
2023-03-02T09:02:46.962Z,43.31
2023-03-02T09:04:48.545Z,43.18
2023-03-02T09:06:50.197Z,43.56
2023-03-02T09:08:52.103Z,43.61
2023-03-02T09:10:53.971Z,43.58
2023-03-02T09:12:55.506Z,43.40
2023-03-02T09:14:57.361Z,43.45
2023-03-02T09:16:59.156Z,43.94
2023-03-02T09:19:00.920Z,44.01
2023-03-02T09:21:04.830Z,44.44
2023-03-02T09:23:06.458Z,44.60
2023-03-02T09:25:08.365Z,44.54
2023-03-02T09:27:10.126Z,45.25
2023-03-02T09:29:11.813Z,45.30
2023-03-02T09:31:13.529Z,45.61
2023-03-02T09:33:15.178Z,45.49
2023-03-02T09:35:16.991Z,45.77
2023-03-02T09:37:18.615Z,46.06
2023-03-02T09:39:20.229Z,45.70
2023-03-02T09:41:21.845Z,45.70
2023-03-02T09:43:44.320Z,45.50
2023-03-02T09:45:51.323Z,45.39
2023-03-02T09:48:15.307Z,45.45
2023-03-02T09:50:32.066Z,44.95
2023-03-02T09:52:40.345Z,44.49
2023-03-02T09:54:42.852Z,44.38
2023-03-02T09:57:00.242Z,43.98
2023-03-02T09:59:07.124Z,43.81
2023-03-02T10:01:16.827Z,43.39
2023-03-02T10:03:45.687Z,43.07
2023-03-02T10:05:56.284Z,42.55
2023-03-02T10:07:59.385Z,42.39
2023-03-02T10:10:36.516Z,42.18
2023-03-02T10:13:01.304Z,41.96
2023-03-02T10:15:54.414Z,41.69
2023-03-02T10:18:11.079Z,41.35
2023-03-02T10:20:24.238Z,41.41
2023-03-02T10:22:35.006Z,40.99
2023-03-02T10:24:44.609Z,40.90
2023-03-02T10:26:52.046Z,40.72
2023-03-02T10:29:01.466Z,40.33
2023-03-02T10:31:14.613Z,39.93
2023-03-02T10:33:19.027Z,39.89
2023-03-02T10:35:23.379Z,39.53
2023-03-02T10:37:30.031Z,39.17
2023-03-02T10:39:31.679Z,39.56
2023-03-02T10:41:40.690Z,39.32
2023-03-02T10:43:51.636Z,39.01
2023-03-02T10:46:07.413Z,38.53
2023-03-02T10:48:11.918Z,38.97
2023-03-02T10:50:23.498Z,38.90
2023-03-02T10:52:27.905Z,38.68
2023-03-02T10:54:31.793Z,38.83
2023-03-02T10:56:34.438Z,38.58
2023-03-02T10:58:36.420Z,38.69
2023-03-02T11:00:38.073Z,38.47
2023-03-02T11:02:50.871Z,38.20
2023-03-02T11:04:58.320Z,37.75
2023-03-02T11:07:24.116Z,37.45
2023-03-02T11:11:28.907Z,37.63
2023-03-02T11:13:36.866Z,36.95
2023-03-02T11:15:47.105Z,37.12
2023-03-02T11:17:56.882Z,37.41
2023-03-02T11:19:58.685Z,37.37
2023-03-02T11:22:32.924Z,36.27
2023-03-02T11:24:53.519Z,35.77
2023-03-02T11:26:59.365Z,36.22
2023-03-02T11:29:13.111Z,35.83
2023-03-02T11:31:26.566Z,35.74
2023-03-02T11:33:37.750Z,35.53
2023-03-02T11:35:54.385Z,35.93
2023-03-02T11:38:02.390Z,35.56
2023-03-02T11:40:22.671Z,34.57
2023-03-02T11:42:37.610Z,35.04
2023-03-02T11:44:39.718Z,35.14
2023-03-02T11:46:45.819Z,34.81
2023-03-02T11:48:50.798Z,34.22
2023-03-02T11:50:55.497Z,34.61
2023-03-02T11:53:03.672Z,34.09
2023-03-02T11:55:22.443Z,34.00
2023-03-02T11:57:38.630Z,34.28
2023-03-02T11:59:41.381Z,34.43
2023-03-02T12:01:47.979Z,34.20
2023-03-02T12:03:50.497Z,34.26
2023-03-02T12:05:51.981Z,34.62
2023-03-02T12:08:02.585Z,34.33
2023-03-02T12:10:24.109Z,34.35
2023-03-02T12:12:25.640Z,34.21
2023-03-02T12:14:36.631Z,34.45
2023-03-02T12:16:43.703Z,34.20
2023-03-02T12:18:52.801Z,33.89
2023-03-02T12:21:16.065Z,34.19
2023-03-02T12:23:26.423Z,34.21
2023-03-02T12:25:38.192Z,34.42
2023-03-02T12:27:42.105Z,34.42
2023-03-02T12:29:47.120Z,34.30
2023-03-02T12:31:52.073Z,33.77
2023-03-02T12:33:53.744Z,34.02
2023-03-02T12:36:11.317Z,33.25
2023-03-02T12:38:26.428Z,34.09
2023-03-02T12:40:59.615Z,34.02
2023-03-02T12:43:03.911Z,34.72
2023-03-02T12:45:17.484Z,34.51
2023-03-02T12:47:27.991Z,34.52
2023-03-02T12:49:42.104Z,34.42
2023-03-02T12:51:58.630Z,34.23
2023-03-02T12:54:04.206Z,34.42
2023-03-02T12:56:08.959Z,34.56
2023-03-02T12:58:23.510Z,34.52
2023-03-02T13:00:30.274Z,34.59
2023-03-02T13:02:35.096Z,34.51
2023-03-02T13:04:36.875Z,34.56
2023-03-02T13:06:39.679Z,34.20
2023-03-02T13:08:44.668Z,34.23
2023-03-02T13:10:52.194Z,33.99
2023-03-02T13:12:56.379Z,34.21
2023-03-02T13:15:01.704Z,34.51
2023-03-02T13:17:03.634Z,34.61
2023-03-02T13:19:14.830Z,34.29
2023-03-02T13:21:18.865Z,34.50
2023-03-02T13:23:20.912Z,34.38
2023-03-02T13:25:28.880Z,34.33
2023-03-02T13:27:31.295Z,33.44
2023-03-02T13:29:33.626Z,32.73
2023-03-02T13:31:35.452Z,33.24
2023-03-02T13:33:45.004Z,33.02
2023-03-02T13:35:47.985Z,33.02
2023-03-02T13:38:04.941Z,32.63
2023-03-02T13:40:31.922Z,32.59
2023-03-02T13:42:40.769Z,32.77
2023-03-02T13:44:42.967Z,33.22
2023-03-02T13:46:46.155Z,32.99
2023-03-02T13:49:13.712Z,32.94
2023-03-02T13:51:18.048Z,32.91
2023-03-02T13:53:20.279Z,32.78
2023-03-02T13:55:23.083Z,32.40
2023-03-02T13:57:32.879Z,31.77
2023-03-02T13:59:36.670Z,32.12
2023-03-02T14:01:38.492Z,32.24
2023-03-02T14:03:40.148Z,32.37
2023-03-02T14:05:41.868Z,32.38
2023-03-02T14:07:43.452Z,31.83
2023-03-02T14:09:45.323Z,31.79
2023-03-02T14:11:50.918Z,32.12
2023-03-02T14:13:54.852Z,31.89
2023-03-02T14:15:57.273Z,31.94
2023-03-02T14:17:59.035Z,31.54
2023-03-02T14:20:00.883Z,31.24
2023-03-02T14:22:02.798Z,31.46
2023-03-02T14:24:04.632Z,31.32
2023-03-02T14:26:26.004Z,31.35
2023-03-02T14:28:27.665Z,31.33
2023-03-02T14:30:29.237Z,30.91
2023-03-02T14:32:31.313Z,31.10
2023-03-02T14:34:36.123Z,31.26
2023-03-02T14:36:39.251Z,31.22
2023-03-02T14:38:40.902Z,31.06
2023-03-02T14:40:42.867Z,31.42
2023-03-02T14:42:44.635Z,31.41
2023-03-02T14:44:48.683Z,31.28
2023-03-02T14:46:51.264Z,31.58
2023-03-02T14:48:52.800Z,31.13
2023-03-02T14:50:54.641Z,31.37
2023-03-02T14:52:58.088Z,31.47
2023-03-02T14:55:07.162Z,31.56
2023-03-02T14:57:25.518Z,31.49
2023-03-02T14:59:27.084Z,31.50
2023-03-02T15:01:28.817Z,31.66
2023-03-02T15:03:30.630Z,31.32
2023-03-02T15:05:32.585Z,31.37
2023-03-02T15:07:34.290Z,31.69
2023-03-02T15:09:35.835Z,31.30
2023-03-02T15:11:37.565Z,31.32
2023-03-02T15:13:39.312Z,31.65
2023-03-02T15:15:43.172Z,31.29
2023-03-02T15:17:48.152Z,31.27
2023-03-02T15:19:49.722Z,31.48
2023-03-02T15:21:52.900Z,31.88
2023-03-02T15:23:54.968Z,31.48
2023-03-02T15:26:04.321Z,31.44
2023-03-02T15:28:05.827Z,31.86
2023-03-02T15:30:08.058Z,31.97
2023-03-02T15:32:09.668Z,32.09
2023-03-02T15:34:12.153Z,32.01
2023-03-02T15:36:14.249Z,32.27
2023-03-02T15:38:15.825Z,32.43
2023-03-02T15:40:17.527Z,32.31
2023-03-02T15:42:19.066Z,32.03
2023-03-02T15:44:24.111Z,32.21
2023-03-02T15:46:26.974Z,32.21
2023-03-02T15:48:29.872Z,32.07
2023-03-02T15:50:31.729Z,32.04
2023-03-02T15:52:33.324Z,32.30
2023-03-02T15:54:38.263Z,32.04
2023-03-02T15:56:48.307Z,32.28
2023-03-02T15:58:49.981Z,32.06
2023-03-02T16:00:53.911Z,32.04
2023-03-02T16:02:55.721Z,32.26
2023-03-02T16:04:57.563Z,32.26
2023-03-02T16:07:01.980Z,32.29
2023-03-02T16:09:06.956Z,32.24
2023-03-02T16:11:10.342Z,32.31
2023-03-02T16:13:16.489Z,32.30
2023-03-02T16:15:18.393Z,32.37
2023-03-02T16:17:20.208Z,32.43
2023-03-02T16:19:22.022Z,32.61
2023-03-02T16:21:25.664Z,32.60
2023-03-02T16:23:27.322Z,32.75
2023-03-02T16:25:29.113Z,32.84
2023-03-02T16:27:30.829Z,32.80
2023-03-02T16:29:35.263Z,32.87
2023-03-02T16:31:43.089Z,33.17
2023-03-02T16:33:45.468Z,33.06
2023-03-02T16:35:49.249Z,33.05
2023-03-02T16:37:51.189Z,33.17
2023-03-02T16:39:52.719Z,33.19
2023-03-02T16:41:54.477Z,33.32
2023-03-02T16:44:00.846Z,33.27
2023-03-02T16:46:02.508Z,33.38
2023-03-02T16:48:05.434Z,33.42
2023-03-02T16:50:10.401Z,33.54
2023-03-02T16:52:12.453Z,33.39
2023-03-02T16:54:16.844Z,33.42
2023-03-02T16:56:18.418Z,33.62
2023-03-02T16:58:20.452Z,33.59
2023-03-02T17:00:23.185Z,33.71
2023-03-02T17:02:24.912Z,33.65
2023-03-02T17:04:26.521Z,33.52
2023-03-02T17:06:28.232Z,33.54
2023-03-02T17:08:29.949Z,33.64
2023-03-02T17:10:31.656Z,33.73
2023-03-02T17:12:33.510Z,33.54
2023-03-02T17:14:34.929Z,33.64
2023-03-02T17:16:36.806Z,33.55
2023-03-02T17:18:38.812Z,33.62
2023-03-02T17:20:41.376Z,33.79
2023-03-02T17:22:43.095Z,33.72
2023-03-02T17:24:44.907Z,33.73
2023-03-02T17:26:47.178Z,33.98
2023-03-02T17:28:49.114Z,33.93
2023-03-02T17:30:50.790Z,33.87
2023-03-02T17:32:52.460Z,34.10
2023-03-02T17:34:54.095Z,34.00
2023-03-02T17:36:55.628Z,34.22
2023-03-02T17:38:57.238Z,34.15
2023-03-02T17:41:02.603Z,34.16
2023-03-02T17:43:04.116Z,34.06
2023-03-02T17:45:06.409Z,34.35
2023-03-02T17:47:08.422Z,34.31
2023-03-02T17:49:10.108Z,34.47
2023-03-02T17:51:14.689Z,34.21
2023-03-02T17:53:16.299Z,34.39
2023-03-02T17:55:18.478Z,34.59
2023-03-02T17:57:22.539Z,34.60
2023-03-02T17:59:27.199Z,34.42
2023-03-02T18:01:29.768Z,34.54
2023-03-02T18:03:31.608Z,34.78
2023-03-02T18:05:33.190Z,34.79
2023-03-02T18:07:35.125Z,34.61
2023-03-02T18:09:36.685Z,34.75
2023-03-02T18:11:38.592Z,34.92
2023-03-02T18:13:40.408Z,35.23
2023-03-02T18:15:42.403Z,34.75
2023-03-02T18:17:46.156Z,34.73
2023-03-02T18:19:50.690Z,34.82
2023-03-02T18:21:52.320Z,34.76
2023-03-02T18:23:54.996Z,34.98
2023-03-02T18:25:56.742Z,34.86
2023-03-02T18:27:58.418Z,35.07
2023-03-02T18:30:00.188Z,35.09
2023-03-02T18:32:01.944Z,35.14
2023-03-02T18:34:04.203Z,35.13
2023-03-02T18:36:06.359Z,35.13
2023-03-02T18:38:08.103Z,35.24
2023-03-02T18:40:11.279Z,35.16
2023-03-02T18:42:12.900Z,35.50
2023-03-02T18:44:14.503Z,35.39
2023-03-02T18:46:27.642Z,35.50
2023-03-02T18:48:29.458Z,35.47
2023-03-02T18:50:31.211Z,35.51
2023-03-02T18:52:32.947Z,35.41
2023-03-02T18:54:34.728Z,35.46
2023-03-02T18:56:38.802Z,35.43
2023-03-02T19:01:30.474Z,35.60
2023-03-02T19:04:07.757Z,35.64
2023-03-02T19:06:26.674Z,35.71
2023-03-02T19:08:36.468Z,35.57
2023-03-02T19:10:42.913Z,35.77
2023-03-02T19:12:53.716Z,35.83
2023-03-02T19:15:06.418Z,36.02
2023-03-02T19:17:11.330Z,35.99
2023-03-02T19:19:14.023Z,36.04
2023-03-02T19:21:16.652Z,36.32
2023-03-02T19:23:18.734Z,36.17
2023-03-02T19:25:20.952Z,36.26
2023-03-02T19:27:22.530Z,35.91
2023-03-02T19:29:24.364Z,36.16
2023-03-02T19:31:27.720Z,36.08
2023-03-02T19:33:30.140Z,36.10
2023-03-02T19:35:32.259Z,36.05
2023-03-02T19:37:34.100Z,36.17
2023-03-02T19:39:35.672Z,36.16
2023-03-02T19:41:37.327Z,36.18
2023-03-02T19:43:40.477Z,36.09
2023-03-02T19:45:42.436Z,36.20
2023-03-02T19:47:45.376Z,36.29
2023-03-02T19:49:47.166Z,36.19
2023-03-02T19:51:48.854Z,36.41
2023-03-02T19:53:50.650Z,36.26
2023-03-02T19:55:52.718Z,36.34
2023-03-02T19:58:00.200Z,36.39
2023-03-02T20:00:02.054Z,36.30
2023-03-02T20:02:06.186Z,36.38
2023-03-02T20:04:10.904Z,36.45
2023-03-02T20:06:12.803Z,36.50
2023-03-02T20:08:16.887Z,36.45
2023-03-02T20:10:35.673Z,36.37
2023-03-02T20:12:37.738Z,36.37
2023-03-02T20:14:40.845Z,36.48
2023-03-02T20:16:42.704Z,36.48
2023-03-02T20:18:45.534Z,36.56
2023-03-02T20:20:48.612Z,36.65
2023-03-02T20:22:50.705Z,36.39
2023-03-02T20:24:52.686Z,36.27
2023-03-02T20:26:54.650Z,36.90
2023-03-02T20:28:58.290Z,36.42
2023-03-02T20:31:04.301Z,36.84
2023-03-02T20:33:10.762Z,36.74
2023-03-02T20:35:12.886Z,36.93
2023-03-02T20:37:15.758Z,36.63
2023-03-02T20:39:23.357Z,36.70
2023-03-02T20:41:31.140Z,36.84
2023-03-02T20:43:33.453Z,36.80
2023-03-02T20:45:35.764Z,36.71
2023-03-02T20:47:37.484Z,37.06
2023-03-02T20:49:39.334Z,37.07
2023-03-02T20:51:45.488Z,37.21
2023-03-02T20:53:47.258Z,36.63
2023-03-02T20:55:49.481Z,37.05
2023-03-02T20:57:55.263Z,37.13
2023-03-02T20:59:56.961Z,37.09
2023-03-02T21:01:58.607Z,37.02
2023-03-02T21:04:00.419Z,37.43
2023-03-02T21:06:03.235Z,37.25
2023-03-02T21:08:04.882Z,37.38
2023-03-02T21:10:11.597Z,37.45
2023-03-02T21:12:13.404Z,37.25
2023-03-02T21:14:18.515Z,37.22
2023-03-02T21:16:27.688Z,37.33
2023-03-02T21:18:29.359Z,37.44
2023-03-02T21:20:33.253Z,37.43
2023-03-02T21:22:34.994Z,37.64
2023-03-02T21:24:36.849Z,37.75
2023-03-02T21:26:39.213Z,37.82
2023-03-02T21:28:44.945Z,37.46
2023-03-02T21:30:46.833Z,37.68
2023-03-02T21:32:48.814Z,37.49
2023-03-02T21:34:54.248Z,37.71
2023-03-02T21:36:59.841Z,37.53
2023-03-02T21:39:02.287Z,38.07
2023-03-02T21:41:04.078Z,37.85
2023-03-02T21:43:06.205Z,38.16
2023-03-02T21:45:12.413Z,38.23
2023-03-02T21:47:14.133Z,38.31
2023-03-02T21:49:18.800Z,38.08
2023-03-02T21:51:21.615Z,38.03
2023-03-02T21:53:23.521Z,37.96
2023-03-02T21:55:33.443Z,38.20
2023-03-02T21:57:35.716Z,38.06
2023-03-02T21:59:37.463Z,38.39
2023-03-02T22:01:39.595Z,38.32
2023-03-02T22:03:42.228Z,38.63
2023-03-02T22:05:44.171Z,38.17
2023-03-02T22:07:46.991Z,38.48
2023-03-02T22:09:48.672Z,38.57
2023-03-02T22:11:50.569Z,38.33
2023-03-02T22:13:58.382Z,38.95
2023-03-02T22:16:20.662Z,38.89
2023-03-02T22:18:25.150Z,38.58
2023-03-02T22:20:27.085Z,38.52
2023-03-02T22:22:31.787Z,38.73
2023-03-02T22:24:33.760Z,38.66
2023-03-02T22:26:47.325Z,38.88
2023-03-02T22:28:49.240Z,38.80
2023-03-02T22:30:52.639Z,38.82
2023-03-02T22:32:54.303Z,38.88
2023-03-02T22:35:02.661Z,39.15
2023-03-02T22:37:17.625Z,39.11
2023-03-02T22:39:33.689Z,39.23
2023-03-02T22:41:35.289Z,39.19
2023-03-02T22:43:36.861Z,39.10
2023-03-02T22:45:39.952Z,39.01
2023-03-02T22:47:48.208Z,39.12
2023-03-02T22:49:56.649Z,39.17
2023-03-02T22:52:11.343Z,39.13
2023-03-02T22:54:21.531Z,39.04
2023-03-02T22:56:30.109Z,39.18
2023-03-02T22:58:47.397Z,39.44
2023-03-02T23:00:49.401Z,39.26
2023-03-02T23:03:01.339Z,39.39
2023-03-02T23:05:28.436Z,39.55
2023-03-02T23:07:30.100Z,39.34
2023-03-02T23:09:35.710Z,39.51
2023-03-02T23:11:39.584Z,39.48
2023-03-02T23:13:41.320Z,39.50
2023-03-02T23:15:43.649Z,39.71
2023-03-02T23:17:48.306Z,39.34
2023-03-02T23:19:51.486Z,39.70
2023-03-02T23:21:53.685Z,39.69
2023-03-02T23:23:56.077Z,39.56
2023-03-02T23:25:57.716Z,40.19
2023-03-02T23:27:59.364Z,39.58
2023-03-02T23:30:01.586Z,39.94
2023-03-02T23:32:04.162Z,39.83
2023-03-02T23:34:06.373Z,39.73
2023-03-02T23:36:16.968Z,40.00
2023-03-02T23:38:21.981Z,39.90
2023-03-02T23:40:23.611Z,39.79
2023-03-02T23:42:25.467Z,39.56
2023-03-02T23:44:27.113Z,40.15
2023-03-02T23:46:29.833Z,40.03
2023-03-02T23:48:32.483Z,40.04
2023-03-02T23:50:36.516Z,40.26
2023-03-02T23:52:39.555Z,39.94
2023-03-02T23:54:43.405Z,39.93
2023-03-02T23:56:48.454Z,39.90
2023-03-02T23:58:50.228Z,39.80
